Airfield :
LOGIN :

Register | Disclaimer

   EN    FR    IT 

 










Legend :    VFR   Marginal VFR   IFR   Intensive IFR   Very Intensive IFR
Visi :
Ceiling :
>= 8 km
>= 3000ft
5 to 8 km
1000 to 3000 ft
1500m to 5 km
500 to 1000 ft
800 to 1500m
200 to 500 ft
< 800m
< 200 ft
Symbols :   Thunderstorms  Fog  Heavy snow  Heavy precipitations  Wind > 20 kt
SIGMETs :     Misc.  Thunderstorms  Icing  Turbulence  Mountain Waves  Volcanic Ashes






- Airport Elevation : 172 ft
- IATA code : ODS


UKOO - Odesa

CURRENT METAR :
  • 051100Z 07006MPS 040V110 CAVOK 15/M09 Q1028 R34/090060 NOSIG

EXPIRED METARs :
  • 051030Z 05007MPS 010V080 CAVOK 15/M07 Q1028 R34/090060 NOSIG
  • 051000Z 05007MPS CAVOK 14/M07 Q1028 R34/090060 NOSIG
  • 050930Z 07007MPS CAVOK 14/M08 Q1028 R34/090060 NOSIG
  • 050900Z 07006MPS 020V100 CAVOK 14/M07 Q1029 R34/090060 NOSIG
  • 050830Z 06006MPS CAVOK 14/M09 Q1029 R34/090060 NOSIG

TAF TAF UKOO
Valid from the 05 at 06:00 until the 06 at 06:00 UTC


050503Z 0506/0606 04006G13MPS 6000 BKN010 SCT020CB TX12/0512Z TN01/0603Z
TEMPO 0510/0518 04009G16MPS



MET'MAP, your aeronautical weather chart ! - Copyright ORBIFLY December 2007 - Disclaimer

ORBIFLY MET'MAP TEAM :

Programming & Development : Alexandra Zaïnal
Concept & original design : Baudouin d'Aumeries
Assistance for programming : Marc-Olivier Méhu
Technical & hardware support : Manuel Goepfert

Contact : metmap@orbifly.com




SOURCES & CREDITS :

   NOAA